Time;durP1;ratioP1;P1;durP2;ratioP2;P2;SDS_P1;SDS_P2;PMS_P1;PMS_P2;Temp;Humidity;BMP_temperature;BMP_pressure;BME280_temperature;BME280_humidity;BME280_pressure;Samples;Min_cycle;Max_cycle;Signal;HPM_P1;HPM_P2
2022/08/11 00:01:54;;;;;;;5.97;2.60;;;;;;;;;;5055687;28;20226;-40
2022/08/11 00:04:23;;;;;;;5.85;2.53;;;;;;;;;;5055362;28;20208;-41
2022/08/11 00:06:51;;;;;;;6.53;2.70;;;;;;;;;;5056267;28;20204;-40
2022/08/11 00:09:23;;;;;;;9.48;2.50;;;;;;;;;;5055002;28;20204;-44
2022/08/11 00:11:52;;;;;;;4.30;2.45;;;;;;;;;;5071765;28;20206;-39
2022/08/11 00:14:32;;;;;;;4.28;2.72;;;;;;;;;;5073954;28;20202;-40
2022/08/11 00:17:10;;;;;;;3.80;2.15;;;;;;;;;;5074452;28;20202;-39
2022/08/11 00:19:40;;;;;;;6.63;2.22;;;;;;;;;;5074598;28;20223;-40
2022/08/11 00:22:28;;;;;;;4.45;2.47;;;;;;;;;;5075531;28;20231;-40
2022/08/11 00:24:56;;;;;;;3.80;2.40;;;;;;;;;;5073904;28;20210;-40
2022/08/11 00:27:33;;;;;;;3.20;2.42;;;;;;;;;;5075865;28;20205;-39
2022/08/11 00:30:01;;;;;;;5.50;2.78;;;;;;;;;;5075666;28;20305;-40
2022/08/11 00:32:29;;;;;;;4.50;2.17;;;;;;;;;;5075305;28;20207;-39
2022/08/11 00:34:57;;;;;;;5.78;2.92;;;;;;;;;;5075486;28;20199;-41
2022/08/11 00:37:48;;;;;;;5.85;2.15;;;;;;;;;;5074210;28;20206;-40
2022/08/11 00:40:22;;;;;;;4.57;2.63;;;;;;;;;;5074573;28;20234;-40
2022/08/11 00:43:11;;;;;;;3.92;2.25;;;;;;;;;;5073967;28;20214;-40
2022/08/11 00:46:22;;;;;;;7.95;2.80;;;;;;;;;;5074838;28;20200;-40
2022/08/11 00:49:36;;;;;;;4.68;3.10;;;;;;;;;;5074844;28;20199;-40
2022/08/11 00:52:29;;;;;;;4.68;2.17;;;;;;;;;;5073235;28;20210;-39
2022/08/11 00:55:18;;;;;;;6.13;2.53;;;;;;;;;;5055909;28;20253;-40
2022/08/11 00:58:12;;;;;;;3.65;2.60;;;;;;;;;;5073495;28;20188;-40
2022/08/11 01:01:12;;;;;;;6.53;2.65;;;;;;;;;;5073396;28;20285;-40
2022/08/11 01:04:04;;;;;;;4.75;2.92;;;;;;;;;;5073378;28;20656;-39
2022/08/11 01:06:50;;;;;;;6.72;2.42;;;;;;;;;;5073269;28;20207;-39
2022/08/11 01:09:39;;;;;;;5.63;2.72;;;;;;;;;;5056751;28;20214;-39
2022/08/11 01:12:24;;;;;;;4.75;2.90;;;;;;;;;;5073335;28;20261;-40
2022/08/11 01:15:18;;;;;;;3.58;2.47;;;;;;;;;;5073142;28;20674;-39
2022/08/11 01:17:56;;;;;;;7.30;2.85;;;;;;;;;;5073225;28;20241;-40
2022/08/11 01:20:32;;;;;;;5.55;2.80;;;;;;;;;;5056387;28;20213;-39
2022/08/11 01:23:38;;;;;;;6.05;2.10;;;;;;;;;;5056192;28;20237;-40
2022/08/11 01:26:42;;;;;;;5.97;2.53;;;;;;;;;;5072788;28;20207;-41
2022/08/11 01:29:23;;;;;;;4.40;2.55;;;;;;;;;;5074734;28;20213;-39
2022/08/11 01:31:56;;;;;;;4.50;2.72;;;;;;;;;;5074598;28;20195;-39
2022/08/11 01:34:26;;;;;;;6.45;2.53;;;;;;;;;;5074384;28;20203;-41
2022/08/11 01:37:02;;;;;;;4.20;2.70;;;;;;;;;;5074608;28;20256;-39
2022/08/11 01:39:38;;;;;;;4.90;2.50;;;;;;;;;;5090180;28;20218;-40
2022/08/11 01:46:05;;;;;;;2.60;2.10;;;;;;;;;;5032878;28;20205;-40
2022/08/11 01:48:42;;;;;;;11.63;2.40;;;;;;;;;;5032883;28;20271;-39
2022/08/11 01:51:37;;;;;;;5.30;2.60;;;;;;;;;;5016609;28;20201;-40
2022/08/11 01:54:36;;;;;;;6.97;2.72;;;;;;;;;;5032631;28;20211;-39
2022/08/11 01:57:19;;;;;;;2.90;2.17;;;;;;;;;;5016848;28;20196;-40
2022/08/11 01:59:53;;;;;;;7.03;2.95;;;;;;;;;;5016476;28;20207;-40
2022/08/11 02:02:44;;;;;;;7.03;2.45;;;;;;;;;;5032712;28;20734;-40
2022/08/11 02:05:48;;;;;;;5.70;2.65;;;;;;;;;;5032352;28;20233;-40
2022/08/11 02:08:51;;;;;;;3.50;2.28;;;;;;;;;;5036222;28;20246;-40
2022/08/11 02:11:29;;;;;;;6.80;2.53;;;;;;;;;;5007477;28;20201;-40
2022/08/11 02:14:48;;;;;;;2.95;2.45;;;;;;;;;;5021037;28;20216;-39
2022/08/11 02:17:59;;;;;;;3.47;2.30;;;;;;;;;;4957822;29;20270;-39
2022/08/11 02:26:47;;;;;;;7.20;2.63;;;;;;;;;;5003929;28;20209;-39
2022/08/11 02:29:25;;;;;;;5.22;2.38;;;;;;;;;;5016401;28;20304;-39
2022/08/11 02:35:04;;;;;;;5.78;2.28;;;;;;;;;;5016216;28;20260;-39
2022/08/11 02:37:31;;;;;;;5.88;2.70;;;;;;;;;;5016031;28;20232;-39
2022/08/11 02:39:58;;;;;;;4.93;2.72;;;;;;;;;;5015731;28;20205;-39
2022/08/11 02:42:45;;;;;;;5.93;2.65;;;;;;;;;;5015454;28;20228;-40
2022/08/11 02:45:28;;;;;;;3.83;2.15;;;;;;;;;;5015303;28;20213;-39
2022/08/11 02:51:25;;;;;;;3.67;2.40;;;;;;;;;;5015285;28;20205;-40
2022/08/11 02:54:16;;;;;;;4.65;2.28;;;;;;;;;;5041188;28;20627;-40
2022/08/11 02:56:51;;;;;;;4.10;2.17;;;;;;;;;;5076729;28;20244;-41
2022/08/11 02:59:49;;;;;;;17.05;6.45;;;;;;;;;;5076702;28;20206;-40
2022/08/11 03:02:31;;;;;;;12.65;5.45;;;;;;;;;;5075685;28;20548;-39
2022/08/11 03:05:06;;;;;;;9.10;3.67;;;;;;;;;;5076744;28;20606;-40
2022/08/11 03:07:39;;;;;;;4.65;3.17;;;;;;;;;;5076363;28;20630;-39
2022/08/11 03:10:31;;;;;;;4.80;2.55;;;;;;;;;;5076432;28;20195;-39
2022/08/11 03:19:29;;;;;;;6.95;2.22;;;;;;;;;;5075719;28;20199;-40
2022/08/11 03:21:58;;;;;;;4.10;2.42;;;;;;;;;;5076122;28;20188;-41
2022/08/11 03:24:42;;;;;;;3.13;2.13;;;;;;;;;;5076298;28;20211;-40
2022/08/11 03:27:21;;;;;;;3.00;2.40;;;;;;;;;;5076334;28;20274;-41
2022/08/11 03:30:25;;;;;;;3.15;2.33;;;;;;;;;;5076386;28;20225;-39
2022/08/11 03:36:05;;;;;;;5.05;2.35;;;;;;;;;;5075429;28;20207;-39
2022/08/11 03:38:48;;;;;;;3.00;2.10;;;;;;;;;;5075252;28;20203;-42
2022/08/11 03:41:44;;;;;;;3.70;2.50;;;;;;;;;;5075603;28;20211;-40
2022/08/11 03:44:55;;;;;;;4.28;2.65;;;;;;;;;;5063503;28;20231;-40
2022/08/11 03:48:00;;;;;;;2.83;2.30;;;;;;;;;;5076154;28;20202;-39
2022/08/11 03:50:45;;;;;;;3.50;2.30;;;;;;;;;;5075997;28;20531;-39
2022/08/11 03:53:34;;;;;;;4.35;2.08;;;;;;;;;;5075885;28;20214;-40
2022/08/11 03:56:39;;;;;;;6.63;2.42;;;;;;;;;;5076172;28;20195;-41
2022/08/11 03:59:16;;;;;;;4.10;2.67;;;;;;;;;;5076143;28;20244;-40
2022/08/11 04:02:07;;;;;;;7.38;2.58;;;;;;;;;;5075582;28;20693;-39
2022/08/11 04:04:58;;;;;;;4.07;2.50;;;;;;;;;;5076225;28;20235;-40
2022/08/11 04:08:02;;;;;;;3.13;2.03;;;;;;;;;;5074927;28;20187;-40
2022/08/11 04:10:51;;;;;;;5.45;2.20;;;;;;;;;;5059116;28;20224;-40
2022/08/11 04:13:20;;;;;;;3.13;2.35;;;;;;;;;;5074025;28;20211;-40
2022/08/11 04:16:02;;;;;;;5.15;2.38;;;;;;;;;;5074921;28;20358;-40
2022/08/11 04:19:02;;;;;;;5.50;2.30;;;;;;;;;;5074728;28;20626;-40
2022/08/11 04:22:07;;;;;;;5.05;2.45;;;;;;;;;;5074784;28;20645;-39
2022/08/11 04:24:51;;;;;;;3.42;2.40;;;;;;;;;;5065544;28;20314;-40
2022/08/11 04:27:47;;;;;;;6.45;2.80;;;;;;;;;;5055571;28;20199;-39
2022/08/11 04:30:26;;;;;;;3.58;2.40;;;;;;;;;;5054064;28;20227;-40
2022/08/11 04:33:33;;;;;;;3.40;2.70;;;;;;;;;;5055005;28;20195;-40
2022/08/11 04:36:08;;;;;;;4.78;2.75;;;;;;;;;;5055152;28;20282;-39
2022/08/11 04:39:03;;;;;;;4.43;2.78;;;;;;;;;;5055258;28;20272;-39
2022/08/11 04:45:25;;;;;;;6.13;2.58;;;;;;;;;;5054976;28;20575;-40
2022/08/11 05:03:30;;;;;;;7.57;2.65;;;;;;;;;;5033167;28;20232;-42
2022/08/11 05:06:05;;;;;;;4.63;2.78;;;;;;;;;;5033066;28;20242;-40
2022/08/11 05:09:09;;;;;;;5.15;3.45;;;;;;;;;;5033222;28;20245;-41
2022/08/11 05:11:48;;;;;;;5.72;2.85;;;;;;;;;;5033146;28;20210;-39
2022/08/11 05:35:16;;;;;;;4.60;2.88;;;;;;;;;;5017558;28;20315;-41
2022/08/11 05:58:03;;;;;;;3.42;2.20;;;;;;;;;;5056540;28;20323;-42
2022/08/11 06:00:31;;;;;;;3.00;2.60;;;;;;;;;;5083817;28;20269;-44
2022/08/11 06:03:01;;;;;;;4.85;2.28;;;;;;;;;;5082497;28;20234;-42
2022/08/11 06:05:35;;;;;;;17.50;2.47;;;;;;;;;;5077178;28;20231;-43
2022/08/11 06:08:11;;;;;;;3.80;2.20;;;;;;;;;;5076427;28;20224;-39
2022/08/11 06:10:40;;;;;;;5.95;2.22;;;;;;;;;;5075865;28;20554;-40
2022/08/11 06:13:07;;;;;;;4.60;2.10;;;;;;;;;;5076425;28;20224;-42
2022/08/11 06:15:48;;;;;;;3.30;2.00;;;;;;;;;;5076533;28;20689;-41
2022/08/11 06:18:16;;;;;;;4.70;1.88;;;;;;;;;;5076189;28;20277;-43
2022/08/11 06:20:55;;;;;;;2.08;1.65;;;;;;;;;;5075879;28;20231;-41
2022/08/11 06:23:24;;;;;;;2.95;1.70;;;;;;;;;;5076617;28;20601;-45
2022/08/11 06:25:52;;;;;;;2.03;1.73;;;;;;;;;;5076454;28;20227;-40
2022/08/11 06:28:35;;;;;;;3.33;1.98;;;;;;;;;;5076722;28;20570;-40
2022/08/11 06:31:12;;;;;;;2.40;2.20;;;;;;;;;;5076774;28;20231;-40
2022/08/11 06:33:49;;;;;;;7.90;1.88;;;;;;;;;;5076235;28;20227;-40
2022/08/11 06:36:45;;;;;;;5.68;1.70;;;;;;;;;;5076654;28;20219;-40
2022/08/11 06:39:34;;;;;;;3.45;2.10;;;;;;;;;;5076643;28;20260;-42
2022/08/11 06:42:06;;;;;;;11.35;1.77;;;;;;;;;;5076029;28;20234;-42
2022/08/11 06:44:42;;;;;;;6.72;1.80;;;;;;;;;;5073195;28;20322;-43
2022/08/11 06:47:14;;;;;;;7.20;1.80;;;;;;;;;;5076489;28;20300;-42
2022/08/11 06:52:47;;;;;;;4.95;1.90;;;;;;;;;;5067351;28;20219;-43
2022/08/11 07:01:18;;;;;;;3.75;1.98;;;;;;;;;;5085567;28;20215;-43
2022/08/11 07:03:49;;;;;;;6.65;1.85;;;;;;;;;;5079508;28;20234;-42
2022/08/11 07:06:31;;;;;;;4.60;1.63;;;;;;;;;;5076792;28;20230;-43
2022/08/11 07:15:42;;;;;;;6.13;1.80;;;;;;;;;;5074550;28;20313;-46
2022/08/11 07:30:21;;;;;;;1.30;1.17;;;;;;;;;;5054725;28;20232;-42
2022/08/11 07:32:53;;;;;;;2.55;1.40;;;;;;;;;;5054775;28;20236;-43
2022/08/11 07:35:32;;;;;;;2.03;1.30;;;;;;;;;;5055389;28;20234;-42
2022/08/11 07:38:07;;;;;;;3.20;1.20;;;;;;;;;;5069024;28;20543;-48
2022/08/11 07:40:35;;;;;;;2.20;1.05;;;;;;;;;;5074393;28;20676;-43
2022/08/11 07:43:04;;;;;;;3.92;1.67;;;;;;;;;;5074586;28;20242;-47
2022/08/11 07:53:50;;;;;;;3.45;1.40;;;;;;;;;;5075781;28;20215;-42
2022/08/11 07:56:36;;;;;;;2.60;1.30;;;;;;;;;;5075587;28;20188;-42
2022/08/11 08:19:16;;;;;;;1.27;0.80;;;;;;;;;;5132336;27;20272;-42
2022/08/11 08:21:44;;;;;;;3.58;1.23;;;;;;;;;;5110139;27;20235;-42
2022/08/11 08:24:11;;;;;;;2.03;1.25;;;;;;;;;;5093416;28;20241;-43
2022/08/11 08:26:57;;;;;;;2.67;1.02;;;;;;;;;;5076717;28;20219;-43
2022/08/11 08:32:15;;;;;;;1.17;1.08;;;;;;;;;;5079480;28;20206;-44
2022/08/11 08:34:42;;;;;;;3.75;1.23;;;;;;;;;;5093306;28;20598;-43
2022/08/11 08:37:09;;;;;;;1.38;1.08;;;;;;;;;;5076678;28;20202;-42
2022/08/11 08:39:58;;;;;;;2.65;1.00;;;;;;;;;;5093542;28;20194;-43
2022/08/11 08:42:37;;;;;;;3.28;1.23;;;;;;;;;;5093082;28;20199;-43
2022/08/11 08:45:14;;;;;;;7.47;1.38;;;;;;;;;;5093251;28;20692;-42
2022/08/11 08:47:45;;;;;;;7.00;2.08;;;;;;;;;;5059429;28;20654;-43
2022/08/11 08:50:21;;;;;;;5.13;1.25;;;;;;;;;;5054225;28;20203;-44
2022/08/11 08:52:57;;;;;;;1.52;1.17;;;;;;;;;;5053332;28;20273;-42
2022/08/11 08:55:26;;;;;;;1.42;1.20;;;;;;;;;;5052438;28;20646;-42
2022/08/11 08:57:54;;;;;;;1.42;1.10;;;;;;;;;;5053405;28;20203;-43
2022/08/11 09:00:22;;;;;;;2.78;0.80;;;;;;;;;;5054126;28;20196;-44
2022/08/11 09:02:50;;;;;;;3.72;1.00;;;;;;;;;;5053806;28;20689;-44
2022/08/11 09:05:18;;;;;;;4.80;1.25;;;;;;;;;;5053542;28;20251;-43
2022/08/11 09:07:46;;;;;;;4.55;1.15;;;;;;;;;;5053726;28;20257;-42
2022/08/11 09:10:16;;;;;;;3.72;0.80;;;;;;;;;;5054745;28;20203;-43
2022/08/11 09:12:43;;;;;;;1.13;0.90;;;;;;;;;;5055174;28;20215;-44
2022/08/11 09:15:11;;;;;;;4.55;0.90;;;;;;;;;;5068980;28;20272;-40
2022/08/11 09:17:47;;;;;;;2.17;0.98;;;;;;;;;;5079289;28;20226;-42
2022/08/11 09:20:20;;;;;;;2.90;0.95;;;;;;;;;;5079798;28;20231;-40
2022/08/11 09:28:45;;;;;;;2.67;0.90;;;;;;;;;;5079688;28;20661;-40
2022/08/11 09:31:13;;;;;;;3.22;0.80;;;;;;;;;;5079549;28;20306;-40
2022/08/11 09:33:41;;;;;;;2.13;1.10;;;;;;;;;;5079945;28;20249;-42
2022/08/11 09:41:45;;;;;;;2.15;0.98;;;;;;;;;;5079748;28;20242;-42
2022/08/11 09:47:21;;;;;;;1.90;0.85;;;;;;;;;;5076577;28;20288;-43
2022/08/11 09:49:52;;;;;;;1.55;0.80;;;;;;;;;;5078851;28;20241;-43
2022/08/11 09:52:19;;;;;;;2.17;0.77;;;;;;;;;;5079595;28;20223;-43
2022/08/11 09:54:47;;;;;;;1.63;0.85;;;;;;;;;;5078325;28;20235;-42
2022/08/11 10:00:09;;;;;;;1.45;0.90;;;;;;;;;;5078712;28;20234;-42
2022/08/11 10:02:45;;;;;;;3.35;0.90;;;;;;;;;;5079927;28;20226;-41
2022/08/11 10:08:04;;;;;;;4.57;1.00;;;;;;;;;;5080244;28;20621;-43
2022/08/11 10:10:35;;;;;;;5.65;1.10;;;;;;;;;;5078674;28;20738;-44
2022/08/11 10:13:10;;;;;;;1.90;0.93;;;;;;;;;;5079228;28;20229;-42
2022/08/11 10:16:00;;;;;;;3.60;1.13;;;;;;;;;;5078846;28;20238;-42
2022/08/11 10:18:52;;;;;;;1.27;0.98;;;;;;;;;;5080053;28;20227;-43
2022/08/11 10:21:43;;;;;;;2.78;1.00;;;;;;;;;;5077271;28;20666;-44
2022/08/11 10:27:02;;;;;;;3.38;1.30;;;;;;;;;;5077838;28;20284;-44
2022/08/11 10:35:27;;;;;;;2.92;1.00;;;;;;;;;;5095936;28;20317;-40
2022/08/11 10:37:54;;;;;;;1.95;1.00;;;;;;;;;;5096847;28;20742;-42
2022/08/11 10:40:39;;;;;;;3.67;1.15;;;;;;;;;;5089287;28;20602;-41
2022/08/11 10:43:12;;;;;;;4.30;1.30;;;;;;;;;;5075159;28;20234;-42
2022/08/11 10:48:56;;;;;;;3.42;1.30;;;;;;;;;;5076559;28;20231;-42
2022/08/11 10:59:55;;;;;;;3.50;1.08;;;;;;;;;;5083277;28;20238;-42
2022/08/11 11:02:22;;;;;;;3.90;1.10;;;;;;;;;;5083375;28;20226;-43
2022/08/11 11:05:00;;;;;;;3.25;1.10;;;;;;;;;;5078295;28;20249;-42
2022/08/11 11:07:55;;;;;;;1.83;1.00;;;;;;;;;;5095194;28;20233;-42
2022/08/11 11:10:22;;;;;;;2.28;1.15;;;;;;;;;;5094105;28;20309;-42
2022/08/11 11:18:34;;;;;;;2.00;0.90;;;;;;;;;;5095039;28;20552;-43
2022/08/11 11:21:10;;;;;;;8.52;1.55;;;;;;;;;;5095490;28;20218;-43
2022/08/11 11:23:46;;;;;;;14.35;1.30;;;;;;;;;;5095608;28;20291;-44
2022/08/11 11:26:24;;;;;;;3.80;0.70;;;;;;;;;;5095875;28;20225;-44
2022/08/11 11:29:15;;;;;;;8.70;0.90;;;;;;;;;;5088422;28;20231;-43
2022/08/11 11:31:55;;;;;;;3.78;1.02;;;;;;;;;;5075351;28;20231;-44
2022/08/11 11:34:32;;;;;;;4.00;1.30;;;;;;;;;;5074526;28;20538;-46
2022/08/11 11:37:00;;;;;;;5.40;1.10;;;;;;;;;;5070194;28;20230;-44
2022/08/11 11:39:30;;;;;;;5.22;1.20;;;;;;;;;;5074580;28;20227;-44
2022/08/11 11:42:09;;;;;;;4.85;1.13;;;;;;;;;;5075225;28;20233;-46
2022/08/11 11:44:37;;;;;;;4.68;1.10;;;;;;;;;;5079407;28;20215;-45
2022/08/11 11:47:05;;;;;;;1.25;0.90;;;;;;;;;;5089453;28;20296;-47
2022/08/11 11:49:38;;;;;;;2.22;0.75;;;;;;;;;;5074371;28;20234;-44
2022/08/11 11:52:06;;;;;;;3.08;0.90;;;;;;;;;;5073636;28;20227;-44
2022/08/11 11:54:35;;;;;;;1.85;0.88;;;;;;;;;;5073623;28;20551;-45
2022/08/11 12:02:36;;;;;;;0.82;0.70;;;;;;;;;;5073900;28;20230;-44
2022/08/11 12:05:04;;;;;;;3.53;0.80;;;;;;;;;;5073757;28;20316;-44
2022/08/11 12:10:39;;;;;;;2.15;0.80;;;;;;;;;;5074618;28;20227;-45
2022/08/11 12:15:52;;;;;;;4.20;0.98;;;;;;;;;;5074277;28;20223;-44
2022/08/11 12:18:41;;;;;;;2.15;0.63;;;;;;;;;;5074519;28;20229;-44
2022/08/11 12:21:08;;;;;;;0.93;0.80;;;;;;;;;;5073358;28;20235;-44
2022/08/11 12:29:35;;;;;;;2.35;0.93;;;;;;;;;;5071893;28;20234;-44
2022/08/11 12:32:10;;;;;;;1.20;0.82;;;;;;;;;;5071753;28;20222;-44
2022/08/11 12:34:37;;;;;;;1.42;0.70;;;;;;;;;;5070121;28;20810;-46
2022/08/11 12:37:09;;;;;;;2.53;0.85;;;;;;;;;;5072320;28;20250;-44
2022/08/11 12:46:11;;;;;;;1.20;0.98;;;;;;;;;;5073178;28;20239;-45
2022/08/11 12:52:00;;;;;;;2.08;0.98;;;;;;;;;;5071236;28;20230;-44
2022/08/11 12:54:50;;;;;;;1.92;1.20;;;;;;;;;;5072875;28;20665;-44
2022/08/11 13:05:45;;;;;;;6.60;1.13;;;;;;;;;;5073232;28;20239;-44
2022/08/11 13:08:15;;;;;;;2.58;1.17;;;;;;;;;;5072321;28;20237;-45
2022/08/11 13:13:30;;;;;;;2.10;1.10;;;;;;;;;;5071786;28;20575;-44
2022/08/11 13:16:19;;;;;;;1.75;0.88;;;;;;;;;;5072342;28;20226;-43
2022/08/11 13:18:47;;;;;;;2.53;1.20;;;;;;;;;;5073893;28;20231;-44
2022/08/11 13:21:14;;;;;;;4.97;1.20;;;;;;;;;;5072042;28;20291;-43
2022/08/11 13:23:53;;;;;;;2.28;0.98;;;;;;;;;;5090540;28;20226;-44
2022/08/11 13:26:32;;;;;;;2.63;1.13;;;;;;;;;;5081718;28;20235;-43
2022/08/11 13:29:21;;;;;;;1.65;1.30;;;;;;;;;;5073580;28;20227;-43
2022/08/11 13:31:49;;;;;;;1.77;1.67;;;;;;;;;;5064164;28;20220;-47
2022/08/11 13:34:17;;;;;;;3.95;2.30;;;;;;;;;;5068741;28;20247;-41
2022/08/11 13:36:48;;;;;;;3.88;2.45;;;;;;;;;;5053144;28;20238;-41
2022/08/11 13:39:16;;;;;;;1.88;1.08;;;;;;;;;;5069100;28;20245;-41
2022/08/11 13:41:46;;;;;;;1.40;1.05;;;;;;;;;;5072269;28;20231;-42
2022/08/11 13:44:15;;;;;;;2.38;1.20;;;;;;;;;;5061282;28;20674;-42
2022/08/11 13:46:50;;;;;;;4.55;1.00;;;;;;;;;;5086716;28;20227;-42
2022/08/11 13:49:19;;;;;;;2.47;1.15;;;;;;;;;;5071426;28;20292;-42
2022/08/11 13:51:47;;;;;;;2.15;1.13;;;;;;;;;;5071160;28;20677;-41
2022/08/11 13:54:20;;;;;;;2.10;1.00;;;;;;;;;;5072554;28;20242;-42
2022/08/11 13:56:51;;;;;;;2.03;1.00;;;;;;;;;;5071702;28;20230;-42
2022/08/11 13:59:21;;;;;;;1.52;0.90;;;;;;;;;;5073009;28;20227;-44
2022/08/11 14:02:02;;;;;;;1.90;1.02;;;;;;;;;;5072596;28;20235;-41
2022/08/11 14:04:56;;;;;;;4.13;1.70;;;;;;;;;;5076453;28;20608;-42
2022/08/11 14:07:25;;;;;;;3.70;1.20;;;;;;;;;;5076861;28;20224;-42
2022/08/11 14:09:57;;;;;;;2.08;1.38;;;;;;;;;;5076173;28;20227;-41
2022/08/11 14:15:30;;;;;;;3.45;1.40;;;;;;;;;;5075799;28;20235;-44
2022/08/11 14:18:07;;;;;;;2.30;1.35;;;;;;;;;;5075750;28;20230;-44
2022/08/11 14:23:32;;;;;;;2.75;1.40;;;;;;;;;;5075259;28;20321;-43
2022/08/11 14:28:45;;;;;;;3.83;1.20;;;;;;;;;;5075123;28;20245;-43
2022/08/11 14:31:14;;;;;;;5.50;1.70;;;;;;;;;;5072647;28;20288;-45
2022/08/11 14:33:42;;;;;;;2.95;1.48;;;;;;;;;;5074452;28;20231;-43
2022/08/11 14:36:35;;;;;;;4.10;1.60;;;;;;;;;;5076019;28;20257;-43
2022/08/11 14:39:11;;;;;;;1.73;1.48;;;;;;;;;;5074978;28;20234;-44
2022/08/11 14:47:52;;;;;;;2.38;1.83;;;;;;;;;;5047075;28;20227;-42
2022/08/11 14:50:23;;;;;;;2.08;1.52;;;;;;;;;;5037571;28;20315;-44
2022/08/11 14:52:57;;;;;;;2.03;1.40;;;;;;;;;;5046225;28;20223;-42
2022/08/11 14:58:18;;;;;;;2.38;1.50;;;;;;;;;;5057293;28;20211;-44
2022/08/11 15:00:46;;;;;;;5.50;1.80;;;;;;;;;;5083329;28;20223;-44
2022/08/11 15:03:14;;;;;;;3.45;1.65;;;;;;;;;;5085126;28;20218;-44
2022/08/11 15:05:46;;;;;;;3.67;1.73;;;;;;;;;;5075530;28;20657;-43
2022/08/11 15:14:01;;;;;;;3.60;1.75;;;;;;;;;;5083042;28;20302;-45
2022/08/11 15:19:15;;;;;;;3.10;1.70;;;;;;;;;;5081707;28;20237;-44
2022/08/11 15:24:28;;;;;;;7.40;1.45;;;;;;;;;;5093696;28;20234;-45
2022/08/11 15:38:07;;;;;;;2.58;1.55;;;;;;;;;;5094956;28;20223;-40
2022/08/11 15:46:40;;;;;;;1.67;1.10;;;;;;;;;;5054562;28;20338;-44
2022/08/11 15:49:11;;;;;;;3.47;1.25;;;;;;;;;;5054580;28;20219;-42
2022/08/11 15:51:50;;;;;;;3.17;1.40;;;;;;;;;;5054656;28;20224;-42
2022/08/11 15:54:19;;;;;;;2.72;1.40;;;;;;;;;;5070799;28;20232;-42
2022/08/11 15:56:48;;;;;;;3.20;1.58;;;;;;;;;;5053257;28;20314;-42
2022/08/11 16:05:01;;;;;;;2.65;1.58;;;;;;;;;;5052299;28;20708;-41
2022/08/11 16:07:30;;;;;;;2.50;1.48;;;;;;;;;;5053494;28;20289;-42
2022/08/11 16:10:09;;;;;;;2.50;1.40;;;;;;;;;;5053791;28;20227;-42
2022/08/11 16:16:13;;;;;;;4.20;1.50;;;;;;;;;;5051243;28;20322;-44
2022/08/11 16:18:54;;;;;;;1.85;1.50;;;;;;;;;;5053325;28;20309;-42
2022/08/11 16:21:34;;;;;;;2.85;1.63;;;;;;;;;;5066358;28;20681;-43
2022/08/11 16:24:05;;;;;;;3.80;1.58;;;;;;;;;;5072800;28;20265;-42
2022/08/11 16:26:35;;;;;;;4.05;1.60;;;;;;;;;;5071192;28;20629;-43
2022/08/11 16:29:24;;;;;;;2.03;1.58;;;;;;;;;;5072625;28;20670;-42
2022/08/11 16:40:10;;;;;;;3.03;1.75;;;;;;;;;;5074218;28;20219;-42
2022/08/11 16:48:35;;;;;;;3.45;1.65;;;;;;;;;;5057576;28;20219;-45
2022/08/11 16:51:06;;;;;;;3.40;2.00;;;;;;;;;;5072999;28;20218;-41
2022/08/11 16:53:33;;;;;;;3.88;1.75;;;;;;;;;;5074395;28;20288;-45
2022/08/11 16:56:30;;;;;;;2.83;1.85;;;;;;;;;;5074149;28;20226;-46
2022/08/11 16:59:15;;;;;;;3.55;1.95;;;;;;;;;;5072806;28;20292;-45
2022/08/11 17:01:53;;;;;;;3.05;2.00;;;;;;;;;;5073784;28;20574;-46
2022/08/11 17:13:57;;;;;;;8.80;2.10;;;;;;;;;;5073129;28;20235;-48
2022/08/11 17:16:31;;;;;;;4.05;1.92;;;;;;;;;;5070718;28;20237;-46
2022/08/11 17:19:05;;;;;;;4.70;2.15;;;;;;;;;;5072771;28;20230;-44
2022/08/11 17:24:34;;;;;;;5.88;2.35;;;;;;;;;;5073171;28;20235;-46
2022/08/11 17:27:02;;;;;;;3.15;2.10;;;;;;;;;;5073541;28;20215;-46
2022/08/11 17:29:34;;;;;;;3.72;2.30;;;;;;;;;;5073184;28;20210;-44
2022/08/11 17:35:33;;;;;;;3.20;2.25;;;;;;;;;;5073053;28;20257;-45
2022/08/11 17:38:09;;;;;;;3.47;2.47;;;;;;;;;;5071996;28;20195;-47
2022/08/11 17:40:38;;;;;;;3.78;3.17;;;;;;;;;;5070461;28;20214;-46
2022/08/11 17:48:36;;;;;;;6.28;3.20;;;;;;;;;;5074824;28;20183;-47
2022/08/11 17:59:50;;;;;;;4.35;2.38;;;;;;;;;;5080890;28;20191;-47
2022/08/11 17:59:55;;;;;;;4.05;2.00;;;;;;;;;;5092006;28;20218;-47
2022/08/11 18:05:17;;;;;;;2.95;2.28;;;;;;;;;;5096374;28;20238;-45
